DW9356 Weather Reports


Display with metric or nautical units.
time (UTC)temp
F
wind
direction
speed
MPH
gust
MPH
rain 1hr
in
rain 24hr
in
rain mn
in
humidity
%
barometer
mb
20190324170145 75 110 0.0 4.0 0.00 0.00 0.00 79 1020.0
20190324164640 75 211 1.0 5.0 0.00 0.00 0.00 77 1020.0
20190324163134 75 256 1.0 3.0 0.00 0.00 0.00 80 1020.2
20190324161704 75 101 2.0 8.0 0.00 0.00 0.00 80 1020.4
20190324160116 74 165 3.0 6.0 0.00 0.00 0.00 81 1020.4
20190324154625 73 224 3.0 11.0 0.00 0.00 0.00 84 1020.5
20190324153100 72 124 3.0 8.0 0.00 0.00 0.00 84 1020.5
20190324151629 72 242 1.0 6.0 0.00 0.00 0.00 87 1020.4
20190324150101 69 198 0.0 2.0 0.00 0.00 0.00 91 1020.4
20190324144553 68 113 0.0 3.0 0.00 0.00 0.00 92 1020.4
20190324143105 67 207 1.0 5.0 0.00 0.00 0.00 92 1020.2
20190324141539 67 225 1.0 7.0 0.00 0.00 0.00 93 1019.9
20190324140050 65 174 2.0 5.0 0.00 0.00 0.00 96 1019.6
20190324134516 63 115 0.0 3.0 0.00 0.00 0.00 98 1019.4
20190324133016 62 134 1.0 3.0 0.00 0.00 0.00 98 1019.5
20190324131509 62 148 0.0 2.0 0.00 0.00 0.00 99 1019.6
20190324130007 61 240 0.0 2.0 0.00 0.00 0.00 99 1019.4
20190324124519 61 139 0.0 0.0 0.00 0.00 0.00 98 1019.4
20190324123021 60 124 0.0 1.0 0.00 0.00 0.00 98 1019.4
20190324121502 60 113 0.0 1.0 0.00 0.00 0.00 98 1019.5
20190324120004 60 30 0.0 1.0 0.00 0.00 0.00 98 1019.5
20190324114501 60 25 0.0 0.0 0.00 0.00 0.00 98 1019.3
20190324113133 60 25 0.0 0.0 0.00 0.00 0.00 97 1019.3
20190324111719 60 25 0.0 0.0 0.00 0.00 0.00 98 1019.2
20190324110209 61 315 0.0 1.0 0.00 0.00 0.00 98 1019.2
20190324103215 60 134 0.0 2.0 0.00 0.00 0.00 98 1019.1
20190324101637 60 11 0.0 0.0 0.00 0.00 0.00 98 1019.1
20190324100152 60 82 0.0 0.0 0.00 0.00 0.00 98 1019.1
20190324094733 60 82 0.0 0.0 0.00 0.00 0.00 98 1019.0
20190324093153 59 101 0.0 0.0 0.00 0.00 0.00 98 1019.1
20190324091745 59 104 0.0 0.0 0.00 0.00 0.00 98 1018.9
20190324084618 57 104 0.0 0.0 0.00 0.00 0.00 98 1019.0
20190324083138 57 106 0.0 0.0 0.00 0.00 0.00 98 1019.0
20190324081638 58 104 0.0 0.0 0.00 0.00 0.00 98 1019.1
20190324080135 57 106 0.0 0.0 0.00 0.00 0.00 98 1019.0
20190324074627 57 105 0.0 0.0 0.00 0.00 0.00 97 1018.9
20190324073128 58 105 0.0 0.0 0.00 0.00 0.00 96 1019.3
20190324071633 58 106 0.0 0.0 0.00 0.00 0.00 96 1019.3
20190324070125 59 104 0.0 0.0 0.00 0.00 0.00 95 1019.4
20190324064623 59 105 0.0 0.0 0.00 0.00 0.00 94 1019.5
20190324063057 60 105 0.0 0.0 0.00 0.00 0.00 94 1019.6
20190324061711 60 105 0.0 0.0 0.00 0.00 0.00 94 1019.5
20190324060135 61 105 0.0 0.0 0.00 0.00 0.00 93 1019.6
20190324054736 61 219 0.0 0.0 0.00 0.00 0.00 93 1019.7
20190324053057 61 215 0.0 0.0 0.00 0.00 0.00 93 1019.7
20190324051548 60 115 0.0 0.0 0.00 0.00 0.00 95 1019.8
20190324050049 59 128 0.0 0.0 0.00 0.00 0.00 94 1019.7
20190324044554 60 149 0.0 0.0 0.00 0.00 0.00 92 1020.2
20190324043048 60 149 0.0 0.0 0.00 0.00 0.00 91 1020.3
20190324041601 61 149 0.0 0.0 0.00 0.00 0.00 89 1020.3
20190324040103 63 149 0.0 0.0 0.00 0.00 0.00 87 1020.3
20190324034529 63 149 0.0 2.0 0.00 0.00 0.00 87 1020.2
20190324033104 64 202 0.0 2.0 0.00 0.00 0.00 86 1019.9
20190324031559 64 93 1.0 5.0 0.00 0.00 0.00 85 1019.8
20190324030110 64 149 1.0 4.0 0.00 0.00 0.00 85 1019.8
20190324024608 65 218 0.0 6.0 0.00 0.00 0.00 84 1019.5
20190324023032 65 124 2.0 5.0 0.00 0.00 0.00 83 1019.5
20190324021532 65 224 0.0 6.0 0.00 0.00 0.00 82 1019.4
20190324020031 65 139 1.0 5.0 0.00 0.00 0.00 81 1019.2
20190324014616 66 103 2.0 6.0 0.00 0.00 0.00 81 1019.3
20190324013036 66 206 2.0 6.0 0.00 0.00 0.00 80 1019.1
20190324011539 67 197 3.0 10.0 0.00 0.00 0.00 79 1019.0
20190324010045 67 136 3.0 7.0 0.00 0.00 0.00 78 1018.9
20190324004522 68 221 2.0 7.0 0.00 0.00 0.00 77 1019.0
20190324003045 68 140 2.0 11.0 0.00 0.00 0.00 76 1019.0
20190324001534 69 167 2.0 11.0 0.00 0.00 0.00 74 1019.1
20190324000053 70 131 2.0 13.0 0.00 0.00 0.00 73 1019.1
20190323234545 70 233 2.0 8.0 0.00 0.00 0.00 73 1019.1
20190323233028 71 94 2.0 13.0 0.00 0.00 0.00 71 1019.0
20190323231514 72 134 4.0 11.0 0.00 0.00 0.00 68 1018.9
20190323230010 72 103 4.0 8.0 0.00 0.00 0.00 69 1018.9
20190323224531 71 124 4.0 8.0 0.00 0.00 0.00 67 1018.8
20190323223010 72 253 4.0 10.0 0.00 0.00 0.00 67 1018.8
20190323221542 72 150 5.0 9.0 0.00 0.00 0.00 66 1018.9
20190323220008 72 121 3.0 9.0 0.00 0.00 0.00 66 1018.9
20190323214533 74 79 4.0 11.0 0.00 0.00 0.00 64 1018.9
20190323213006 74 233 2.0 8.0 0.00 0.00 0.00 64 1019.1
20190323211517 74 131 4.0 8.0 0.00 0.00 0.00 64 1019.1
20190323210005 73 108 6.0 12.0 0.00 0.00 0.00 64 1019.0
20190323204508 73 147 3.0 11.0 0.00 0.00 0.00 66 1019.0
20190323203002 74 332 5.0 12.0 0.00 0.00 0.00 64 1019.2
20190323200146 74 143 4.0 12.0 0.00 0.00 0.00 66 1019.8
20190323194632 73 89 5.0 11.0 0.00 0.00 0.00 66 1019.9
20190323193129 72 111 4.0 10.0 0.00 0.00 0.00 69 1019.9
20190323191634 72 312 3.0 9.0 0.00 0.00 0.00 69 1019.8
20190323190151 72 274 3.0 8.0 0.00 0.00 0.00 70 1020.0
20190323184733 72 142 6.0 10.0 0.00 0.00 0.00 68 1020.1
20190323183149 72 121 3.0 8.0 0.00 0.00 0.00 69 1020.1
20190323181647 72 167 4.0 7.0 0.00 0.00 0.00 70 1020.4
20190323180107 71 112 3.0 10.0 0.00 0.00 0.00 71 1020.6
20190323174706 70 105 4.0 11.0 0.00 0.00 0.00 73 1020.8
20190323173124 70 155 1.0 12.0 0.00 0.00 0.00 75 1021.0
20190323171621 69 156 3.0 9.0 0.00 0.00 0.00 74 1021.3